Saint-Simon-De-Rimouski, Canada
Current Conditions -  °F | °C
As of 11:00 PM on Friday 19 Dec 2014 (Local Time) from CYYY Reporting Station
Broken Clouds Broken Clouds  
Wind Chill: 11°   Ceiling: 1500
Heat Index: 23°   Visibility: 15mi
Dew Point: 18°   Wind: 14mph
Humidity: 80%   Direction: 40°NE
Pressure: 30.19"   Gusts: NA
Location:  48.2°N, 69.02°W
Report Text: CYYY 200400Z 04012KT 15SM SCT010 BKN015 M05/M08 A3019 RMK SF3SC3 SLP227
Loading
Personal Weather Stations






























Interactive Weather Map New forecast layout! Learn more

10-Day Weather Forecast

Advertisements
Track Severe Weather on mobile